Time;durP1;ratioP1;P1;durP2;ratioP2;P2;SDS_P1;SDS_P2;PMS_P1;PMS_P2;Temp;Humidity;BMP_temperature;BMP_pressure;BME280_temperature;BME280_humidity;BME280_pressure;Samples;Min_cycle;Max_cycle;Signal;HPM_P1;HPM_P2
2022/12/27 04:01:48;;;;;;;16.83;2.22;;;4.70;99.90;;;;;;6071651;23;20030;-81
2022/12/27 04:04:14;;;;;;;8.75;1.60;;;4.70;99.90;;;;;;6050240;23;20019;-81
2022/12/27 04:06:40;;;;;;;14.55;1.88;;;4.60;99.90;;;;;;6074664;23;20054;-85
2022/12/27 04:36:28;;;;;;;12.23;1.85;;;4.50;99.90;;;;;;6099725;23;20086;-82
2022/12/27 04:38:53;;;;;;;11.13;1.88;;;4.50;99.90;;;;;;6099645;23;20493;-81
2022/12/27 04:55:16;;;;;;;14.73;2.17;;;4.50;99.90;;;;;;6099711;23;19920;-82
2022/12/27 04:57:41;;;;;;;10.52;2.30;;;4.50;99.90;;;;;;6074852;23;20025;-85
2022/12/27 05:02:55;;;;;;;9.90;2.00;;;4.50;99.90;;;;;;6046959;23;20032;-80
2022/12/27 05:05:23;;;;;;;13.73;2.60;;;4.50;99.90;;;;;;6073148;23;20349;-80
2022/12/27 05:16:04;;;;;;;17.15;2.13;;;4.40;99.90;;;;;;6047014;23;20019;-81
2022/12/27 05:18:30;;;;;;;16.58;2.25;;;4.40;99.90;;;;;;6046753;23;20033;-83
2022/12/27 05:21:00;;;;;;;20.15;2.05;;;4.40;99.90;;;;;;6072829;23;20014;-84
2022/12/27 05:26:26;;;;;;;11.63;2.15;;;4.40;99.90;;;;;;6072013;23;20015;-81
2022/12/27 05:28:54;;;;;;;13.13;2.30;;;4.30;99.90;;;;;;6072407;23;20334;-81
2022/12/27 05:31:21;;;;;;;15.02;3.45;;;4.30;99.90;;;;;;6046166;23;20055;-81
2022/12/27 05:33:48;;;;;;;14.65;2.30;;;4.30;99.90;;;;;;6046349;23;20019;-81
2022/12/27 05:36:13;;;;;;;18.27;2.40;;;4.30;99.90;;;;;;6046568;23;20026;-83
2022/12/27 05:38:39;;;;;;;11.52;1.75;;;4.40;99.90;;;;;;6047274;23;20014;-84
2022/12/27 05:41:05;;;;;;;16.73;2.80;;;4.40;99.90;;;;;;6072734;23;20313;-82
2022/12/27 05:43:31;;;;;;;17.52;1.95;;;4.40;99.90;;;;;;6046632;23;20062;-83
2022/12/27 05:46:06;;;;;;;17.23;2.95;;;4.40;99.90;;;;;;6046926;23;20007;-84
2022/12/27 05:48:32;;;;;;;11.95;2.30;;;4.40;99.90;;;;;;6023129;23;20021;-79
2022/12/27 05:51:03;;;;;;;12.70;2.55;;;4.50;99.90;;;;;;6071781;23;20066;-84
2022/12/27 05:53:28;;;;;;;13.90;2.30;;;4.40;99.90;;;;;;6023056;23;20015;-82
2022/12/27 05:55:58;;;;;;;13.80;2.20;;;4.50;99.90;;;;;;6072620;23;20014;-82
2022/12/27 05:58:24;;;;;;;20.70;2.95;;;4.50;99.90;;;;;;6071780;23;20018;-84
2022/12/27 06:00:49;;;;;;;13.70;2.15;;;4.50;99.90;;;;;;6029871;23;20384;-83
2022/12/27 06:03:15;;;;;;;9.68;2.20;;;4.50;99.90;;;;;;6101282;23;20065;-84
2022/12/27 06:05:41;;;;;;;12.27;2.65;;;4.50;99.90;;;;;;6100992;23;20006;-81
2022/12/27 06:08:08;;;;;;;14.50;2.33;;;4.50;99.90;;;;;;6100669;23;20015;-80
2022/12/27 06:10:33;;;;;;;10.40;2.67;;;4.40;99.90;;;;;;6100831;23;20084;-80
2022/12/27 06:13:00;;;;;;;10.82;2.28;;;4.40;99.90;;;;;;6074675;23;20014;-83
2022/12/27 06:15:26;;;;;;;13.60;2.10;;;4.40;99.90;;;;;;6075189;23;20011;-82
2022/12/27 06:17:52;;;;;;;11.88;2.20;;;4.40;99.90;;;;;;6100985;23;20085;-82
2022/12/27 06:20:18;;;;;;;12.43;1.70;;;4.50;99.90;;;;;;6074979;23;20042;-79
2022/12/27 06:22:44;;;;;;;14.18;2.13;;;4.40;99.90;;;;;;6075207;23;20415;-82
2022/12/27 06:25:09;;;;;;;11.40;2.10;;;4.50;99.90;;;;;;6075217;23;20108;-83
2022/12/27 06:27:35;;;;;;;10.38;2.08;;;4.40;99.90;;;;;;6100769;23;20345;-81
2022/12/27 06:30:01;;;;;;;12.50;2.20;;;4.40;99.90;;;;;;6074909;23;20050;-81
2022/12/27 06:32:27;;;;;;;12.93;1.90;;;4.40;99.90;;;;;;6075322;23;20011;-84
2022/12/27 06:34:52;;;;;;;13.93;2.00;;;4.40;99.90;;;;;;6074925;23;20141;-81
2022/12/27 06:37:18;;;;;;;15.75;3.10;;;4.40;99.90;;;;;;6101179;23;20006;-80
2022/12/27 06:39:44;;;;;;;9.48;1.60;;;4.40;99.90;;;;;;6075163;23;20018;-83
2022/12/27 06:42:10;;;;;;;18.08;2.30;;;4.40;99.90;;;;;;6074753;23;20448;-82
2022/12/27 06:44:35;;;;;;;10.02;2.10;;;4.40;99.90;;;;;;6074976;23;20018;-80
2022/12/27 06:47:01;;;;;;;13.10;2.53;;;4.40;99.90;;;;;;6074999;23;20019;-79
2022/12/27 06:49:28;;;;;;;20.83;3.53;;;4.30;99.90;;;;;;6100987;23;20065;-81
2022/12/27 06:51:54;;;;;;;14.38;2.17;;;4.40;99.90;;;;;;6050870;23;20042;-82
2022/12/27 06:54:20;;;;;;;14.73;2.35;;;4.30;99.90;;;;;;6074879;23;20011;-79
2022/12/27 06:56:45;;;;;;;14.93;2.58;;;4.30;99.90;;;;;;6100800;23;20061;-80
2022/12/27 06:59:11;;;;;;;14.25;2.55;;;4.30;99.90;;;;;;6074773;23;20129;-84
2022/12/27 07:01:37;;;;;;;23.75;4.47;;;4.30;99.90;;;;;;6074483;23;20073;-79
2022/12/27 07:04:02;;;;;;;10.27;2.15;;;4.40;99.90;;;;;;6100284;23;20045;-83
2022/12/27 07:06:30;;;;;;;11.00;2.50;;;4.30;99.90;;;;;;6050806;23;20014;-83
2022/12/27 07:08:56;;;;;;;15.13;2.72;;;4.40;99.90;;;;;;6075305;23;20449;-80
2022/12/27 07:11:23;;;;;;;18.67;3.65;;;4.40;99.90;;;;;;6074430;23;20512;-80
2022/12/27 07:13:51;;;;;;;12.98;2.33;;;4.40;99.90;;;;;;6050847;23;20019;-83
2022/12/27 07:16:26;;;;;;;14.80;3.47;;;4.50;99.90;;;;;;6074209;23;20038;-87
2022/12/27 07:18:53;;;;;;;18.20;1.87;;;4.50;99.90;;;;;;6075807;23;20077;-84
2022/12/27 07:21:20;;;;;;;14.02;2.28;;;4.50;99.90;;;;;;6075421;23;20249;-83
2022/12/27 07:23:46;;;;;;;14.68;2.30;;;4.50;99.90;;;;;;6100667;23;20014;-84
2022/12/27 07:26:18;;;;;;;13.35;2.60;;;4.50;99.90;;;;;;6074985;23;20025;-80
2022/12/27 07:28:44;;;;;;;8.57;1.85;;;4.50;99.90;;;;;;6051432;23;20021;-84
2022/12/27 07:31:13;;;;;;;11.50;2.33;;;4.50;99.90;;;;;;6075404;23;20341;-88
2022/12/27 07:33:39;;;;;;;15.95;2.22;;;4.50;99.90;;;;;;6101032;23;20017;-86
2022/12/27 07:36:07;;;;;;;15.45;4.25;;;4.50;99.90;;;;;;6075684;23;20066;-86
2022/12/27 07:38:33;;;;;;;18.35;3.45;;;4.40;99.90;;;;;;6075649;23;20070;-84
2022/12/27 07:41:00;;;;;;;10.43;2.88;;;4.40;99.90;;;;;;6100195;23;20463;-85
2022/12/27 07:43:29;;;;;;;14.02;2.97;;;4.40;99.90;;;;;;6100663;23;20097;-80
2022/12/27 07:46:21;;;;;;;13.63;2.30;;;4.40;99.90;;;;;;6101100;23;20347;-84
2022/12/27 07:48:47;;;;;;;15.45;2.67;;;4.40;99.90;;;;;;6074949;23;20010;-87
2022/12/27 07:51:14;;;;;;;14.68;2.15;;;4.40;99.90;;;;;;6051278;23;20483;-86
2022/12/27 07:53:40;;;;;;;14.50;2.10;;;4.30;99.90;;;;;;6076004;23;20010;-85
2022/12/27 07:56:27;;;;;;;8.10;1.83;;;4.40;99.90;;;;;;6075221;23;20041;-86
2022/12/27 07:58:55;;;;;;;11.13;2.08;;;4.30;99.90;;;;;;6075307;23;20445;-85
2022/12/27 08:01:22;;;;;;;9.80;2.20;;;4.30;99.90;;;;;;6100398;23;20042;-85
2022/12/27 08:03:48;;;;;;;16.52;2.38;;;4.30;99.90;;;;;;6075095;23;20026;-84
2022/12/27 08:06:27;;;;;;;11.40;1.73;;;4.20;99.90;;;;;;6074691;23;20014;-85
2022/12/27 08:08:54;;;;;;;10.90;2.10;;;4.20;99.90;;;;;;6100466;23;20015;-84
2022/12/27 08:11:20;;;;;;;12.80;2.55;;;4.20;99.90;;;;;;6102089;23;20038;-83
2022/12/27 08:13:52;;;;;;;13.07;1.90;;;4.20;99.90;;;;;;6102362;23;20015;-84
2022/12/27 08:16:20;;;;;;;11.55;2.88;;;4.20;99.90;;;;;;6077605;23;20011;-82
2022/12/27 08:18:46;;;;;;;23.50;5.20;;;4.30;99.90;;;;;;6080105;23;20101;-85
2022/12/27 08:21:12;;;;;;;14.15;2.65;;;4.20;99.90;;;;;;6077391;23;20046;-83
2022/12/27 08:23:38;;;;;;;13.25;2.75;;;4.30;99.90;;;;;;6104046;23;20432;-83
2022/12/27 08:26:04;;;;;;;11.05;2.55;;;4.20;99.90;;;;;;6079192;23;20460;-81
2022/12/27 08:28:30;;;;;;;11.52;2.60;;;4.20;99.90;;;;;;6080798;23;20463;-85
2022/12/27 08:30:57;;;;;;;14.70;2.75;;;4.20;99.90;;;;;;6070495;23;20018;-81
2022/12/27 08:33:23;;;;;;;14.57;2.70;;;4.20;99.90;;;;;;6086306;23;20093;-82
2022/12/27 08:35:49;;;;;;;14.32;2.35;;;4.20;99.90;;;;;;6053615;23;20025;-82
2022/12/27 08:38:15;;;;;;;7.80;1.80;;;4.20;99.90;;;;;;6103383;23;20015;-84
2022/12/27 08:40:42;;;;;;;12.90;2.17;;;4.20;99.90;;;;;;6077136;23;20018;-83
2022/12/27 08:43:12;;;;;;;11.30;3.15;;;4.20;99.90;;;;;;6076718;23;20014;-85
2022/12/27 08:45:38;;;;;;;12.57;2.20;;;4.20;99.90;;;;;;6052423;23;20021;-84
2022/12/27 08:48:05;;;;;;;16.33;2.83;;;4.20;99.90;;;;;;6076939;23;20021;-83
2022/12/27 08:50:31;;;;;;;9.95;2.63;;;4.20;99.90;;;;;;6102319;23;20047;-84
2022/12/27 08:53:01;;;;;;;12.48;3.08;;;4.20;99.90;;;;;;6077161;23;20069;-83
2022/12/27 08:55:28;;;;;;;14.40;3.05;;;4.20;99.90;;;;;;6076244;23;20037;-85
2022/12/27 08:58:01;;;;;;;15.45;3.92;;;4.30;99.90;;;;;;6102556;23;20014;-85
2022/12/27 09:00:28;;;;;;;8.15;2.78;;;4.30;99.90;;;;;;6075229;23;20026;-85
2022/12/27 09:02:54;;;;;;;12.90;2.80;;;4.40;99.90;;;;;;6051646;23;20030;-80
2022/12/27 09:05:20;;;;;;;16.25;2.72;;;4.50;99.90;;;;;;6077073;23;20014;-85
2022/12/27 09:07:49;;;;;;;12.38;2.35;;;4.40;99.90;;;;;;6049476;23;20015;-81
2022/12/27 09:10:16;;;;;;;21.27;4.28;;;4.50;99.90;;;;;;6050429;23;20047;-82
2022/12/27 09:12:42;;;;;;;12.38;2.45;;;4.50;99.90;;;;;;6101725;23;20054;-81
2022/12/27 09:15:08;;;;;;;16.77;3.50;;;4.50;99.90;;;;;;6097995;23;20010;-83
2022/12/27 09:17:34;;;;;;;12.73;2.58;;;4.50;99.90;;;;;;6097341;23;20191;-80
2022/12/27 09:20:00;;;;;;;8.20;2.13;;;4.50;99.90;;;;;;6098466;23;20058;-82
2022/12/27 09:22:27;;;;;;;11.80;2.38;;;4.50;99.90;;;;;;6073299;23;20074;-84
2022/12/27 09:24:53;;;;;;;12.35;3.28;;;4.50;99.90;;;;;;6072385;23;20022;-82
2022/12/27 09:27:19;;;;;;;11.63;2.30;;;4.50;99.90;;;;;;6099018;23;20014;-82
2022/12/27 09:29:45;;;;;;;15.55;2.95;;;4.50;99.90;;;;;;6021212;23;20046;-82
2022/12/27 09:32:10;;;;;;;13.77;2.55;;;4.50;99.90;;;;;;6047665;23;20468;-84
2022/12/27 09:34:36;;;;;;;14.02;2.90;;;4.50;99.90;;;;;;6021987;23;20442;-80
2022/12/27 09:37:01;;;;;;;8.52;2.15;;;4.50;99.90;;;;;;6071841;23;20046;-81
2022/12/27 09:39:27;;;;;;;17.30;3.72;;;4.50;99.90;;;;;;6046509;23;20061;-80
2022/12/27 09:42:24;;;;;;;13.38;3.05;;;4.50;99.90;;;;;;6072067;23;20018;-81
2022/12/27 09:44:57;;;;;;;;;;;4.60;99.90;;;;;;6049113;23;20019;-81
2022/12/27 09:47:31;;;;;;;12.70;2.50;;;4.60;99.90;;;;;;6073142;23;19913;-84
2022/12/27 09:50:03;;;;;;;12.80;2.40;;;4.60;99.90;;;;;;6047729;23;20019;-82
2022/12/27 09:52:38;;;;;;;12.35;2.50;;;4.70;99.90;;;;;;6074028;23;20014;-82
2022/12/27 09:55:41;;;;;;;10.65;2.75;;;4.70;99.90;;;;;;6073482;23;20090;-81
2022/12/27 09:58:33;;;;;;;12.65;2.78;;;4.70;99.90;;;;;;5934765;24;20101;-83
2022/12/27 10:01:00;;;;;;;11.90;2.50;;;4.80;99.90;;;;;;6047144;23;20030;-81
2022/12/27 10:03:28;;;;;;;7.07;1.98;;;4.80;99.90;;;;;;6074269;23;20018;-82
2022/12/27 10:06:27;;;;;;;11.00;2.15;;;4.90;99.90;;;;;;6047936;23;20046;-84
2022/12/27 10:09:12;;;;;;;9.20;2.17;;;4.90;99.90;;;;;;6014591;23;20090;-82
2022/12/27 10:12:13;;;;;;;15.40;2.47;;;5.00;99.90;;;;;;6047635;23;20011;-82
2022/12/27 10:14:58;;;;;;;12.85;3.05;;;5.10;99.90;;;;;;6023668;23;20014;-82
2022/12/27 10:17:33;;;;;;;11.95;2.40;;;5.10;99.90;;;;;;6073311;23;20046;-82
2022/12/27 10:20:20;;;;;;;9.05;1.92;;;5.20;99.90;;;;;;6073911;23;20014;-83
2022/12/27 10:22:56;;;;;;;17.17;2.25;;;5.30;99.90;;;;;;6024887;23;20047;-84
2022/12/27 10:25:24;;;;;;;7.00;2.13;;;5.30;99.90;;;;;;6049171;23;20015;-83
2022/12/27 10:28:10;;;;;;;12.10;2.20;;;5.30;99.90;;;;;;6073566;23;20015;-82
2022/12/27 10:30:38;;;;;;;7.78;2.13;;;5.40;99.90;;;;;;6023990;23;20030;-84
2022/12/27 10:33:04;;;;;;;13.07;3.10;;;5.40;99.90;;;;;;6049650;23;20081;-84
2022/12/27 10:35:30;;;;;;;9.98;2.17;;;5.50;99.90;;;;;;6024401;23;20434;-85
2022/12/27 10:37:58;;;;;;;15.05;3.22;;;5.60;99.90;;;;;;6048045;23;20011;-82
2022/12/27 10:40:45;;;;;;;8.10;2.22;;;5.70;99.90;;;;;;6047551;23;20019;-82
2022/12/27 10:43:17;;;;;;;13.05;2.72;;;5.70;99.90;;;;;;6073675;23;20011;-84
2022/12/27 10:45:43;;;;;;;14.65;2.85;;;6.00;99.90;;;;;;6073061;23;20055;-81
2022/12/27 10:48:16;;;;;;;14.70;2.63;;;6.00;99.90;;;;;;6024445;23;20385;-83
2022/12/27 10:50:46;;;;;;;15.70;3.45;;;6.10;99.90;;;;;;6073318;23;20042;-81
2022/12/27 10:53:44;;;;;;;11.90;2.25;;;6.20;99.90;;;;;;6047871;23;20011;-81
2022/12/27 10:56:23;;;;;;;8.70;1.85;;;6.30;99.90;;;;;;6010034;23;20011;-82
2022/12/27 10:58:51;;;;;;;15.02;2.60;;;6.40;99.90;;;;;;6048062;23;20015;-81
2022/12/27 11:01:23;;;;;;;11.82;1.92;;;6.50;99.90;;;;;;6047329;23;20015;-81
2022/12/27 11:03:52;;;;;;;15.23;2.17;;;6.60;99.90;;;;;;6023939;23;20021;-86
2022/12/27 11:06:22;;;;;;;9.65;2.20;;;6.60;99.90;;;;;;6072730;23;20338;-84
2022/12/27 11:08:48;;;;;;;8.55;2.08;;;6.70;99.90;;;;;;6047060;23;20066;-84
2022/12/27 11:11:21;;;;;;;16.15;3.10;;;6.80;99.90;;;;;;6073089;23;20082;-81
2022/12/27 11:13:48;;;;;;;15.98;2.05;;;6.80;99.90;;;;;;6046379;23;20034;-82
2022/12/27 11:16:29;;;;;;;16.98;2.42;;;6.80;99.90;;;;;;6071193;23;20026;-81
2022/12/27 11:18:57;;;;;;;17.85;2.45;;;6.80;99.90;;;;;;6045425;23;20026;-82
2022/12/27 11:21:24;;;;;;;10.85;2.65;;;6.60;99.90;;;;;;6070522;23;20014;-82
2022/12/27 11:23:53;;;;;;;15.60;2.22;;;6.50;99.90;;;;;;6070875;23;20422;-83
2022/12/27 11:26:23;;;;;;;14.93;2.15;;;6.40;99.90;;;;;;6071102;23;20026;-84
2022/12/27 11:28:57;;;;;;;13.90;2.13;;;6.40;99.90;;;;;;6071209;23;20386;-83
2022/12/27 11:31:40;;;;;;;11.50;3.27;;;6.30;99.90;;;;;;6071559;23;20011;-81
2022/12/27 11:34:28;;;;;;;12.93;2.25;;;6.30;99.90;;;;;;6070897;23;20715;-85
2022/12/27 11:37:02;;;;;;;13.80;2.38;;;6.30;99.90;;;;;;6045524;23;20054;-82
2022/12/27 11:39:46;;;;;;;13.23;2.20;;;6.30;99.90;;;;;;6070888;23;20117;-82
2022/12/27 11:42:25;;;;;;;12.40;2.35;;;6.20;99.90;;;;;;6045927;23;20043;-84
2022/12/27 11:45:09;;;;;;;14.82;1.85;;;6.30;99.90;;;;;;6021652;23;20019;-81
2022/12/27 11:47:46;;;;;;;8.07;2.58;;;6.30;99.90;;;;;;6071614;23;20306;-82
2022/12/27 11:50:19;;;;;;;17.30;2.42;;;6.30;99.90;;;;;;6071102;23;20025;-82
2022/12/27 11:53:24;;;;;;;11.90;2.10;;;6.40;99.90;;;;;;6071561;23;20047;-82
2022/12/27 11:56:18;;;;;;;10.65;2.13;;;6.50;99.90;;;;;;6003103;23;20090;-83
2022/12/27 11:58:50;;;;;;;11.57;2.10;;;6.50;99.90;;;;;;6071276;23;20352;-83
2022/12/27 12:01:31;;;;;;;10.95;2.35;;;6.60;99.90;;;;;;6021682;23;20082;-82
2022/12/27 12:04:18;;;;;;;11.07;2.30;;;6.70;99.90;;;;;;6044970;23;20022;-83
2022/12/27 12:07:12;;;;;;;13.18;2.58;;;6.80;99.90;;;;;;6045699;23;20026;-81
2022/12/27 12:09:53;;;;;;;19.48;2.88;;;6.90;99.90;;;;;;6044775;23;20395;-81
2022/12/27 12:12:52;;;;;;;11.23;2.47;;;7.00;99.90;;;;;;6069905;23;20081;-81
2022/12/27 12:15:18;;;;;;;9.05;2.97;;;7.10;99.90;;;;;;6022480;23;20015;-83
2022/12/27 12:18:04;;;;;;;12.75;3.10;;;7.10;99.90;;;;;;6022611;23;20021;-80
2022/12/27 12:20:38;;;;;;;14.38;2.95;;;7.30;99.90;;;;;;6073263;23;20310;-81
2022/12/27 12:23:35;;;;;;;11.02;3.28;;;7.20;99.90;;;;;;6048222;23;20061;-81
2022/12/27 12:26:09;;;;;;;16.50;2.85;;;7.20;99.90;;;;;;6024238;23;20047;-84
2022/12/27 12:28:50;;;;;;;14.88;3.05;;;7.10;99.90;;;;;;6073142;23;20015;-82
2022/12/27 12:31:35;;;;;;;12.55;3.22;;;7.10;99.90;;;;;;6072067;23;20018;-83
2022/12/27 12:34:33;;;;;;;13.25;3.83;;;7.10;99.90;;;;;;6046560;23;20422;-80
2022/12/27 12:37:02;;;;;;;18.98;3.40;;;7.00;99.90;;;;;;6000559;23;20090;-82
2022/12/27 12:39:46;;;;;;;14.98;3.60;;;7.00;99.90;;;;;;6072104;23;20025;-82
2022/12/27 12:42:34;;;;;;;11.27;2.60;;;7.00;99.90;;;;;;6047379;23;20033;-81
2022/12/27 12:45:25;;;;;;;18.23;3.53;;;6.90;99.90;;;;;;6047791;23;20022;-81
2022/12/27 12:48:18;;;;;;;19.55;4.28;;;6.90;99.90;;;;;;6072693;23;20057;-80
2022/12/27 12:51:08;;;;;;;19.80;3.78;;;6.90;99.90;;;;;;6071482;23;20018;-82
2022/12/27 12:54:06;;;;;;;15.88;4.38;;;6.80;99.90;;;;;;6071719;23;20019;-82
2022/12/27 12:56:44;;;;;;;15.50;3.40;;;6.90;99.90;;;;;;6072809;23;20022;-83
2022/12/27 12:59:22;;;;;;;11.90;3.10;;;6.90;99.90;;;;;;6072341;23;20019;-85
2022/12/27 13:02:16;;;;;;;16.30;3.55;;;7.00;99.90;;;;;;6046778;23;20018;-83
2022/12/27 13:04:57;;;;;;;10.98;3.58;;;7.00;99.90;;;;;;6072281;23;20015;-81
2022/12/27 13:07:52;;;;;;;15.10;4.10;;;7.00;99.90;;;;;;6022711;23;20326;-84
2022/12/27 13:10:45;;;;;;;16.30;4.80;;;7.00;99.90;;;;;;6045863;23;20023;-84
2022/12/27 13:13:28;;;;;;;17.55;4.55;;;7.10;99.90;;;;;;6071646;23;20010;-84
2022/12/27 13:16:20;;;;;;;14.35;4.00;;;7.00;99.90;;;;;;6048410;23;20014;-82
2022/12/27 13:19:03;;;;;;;16.23;4.47;;;7.10;99.90;;;;;;6074676;23;20055;-81
2022/12/27 13:22:14;;;;;;;14.32;4.28;;;7.20;99.90;;;;;;6089868;23;20022;-82
2022/12/27 13:25:01;;;;;;;17.90;5.28;;;7.20;99.90;;;;;;5950668;24;20016;-82
2022/12/27 13:28:04;;;;;;;20.38;4.60;;;7.20;99.90;;;;;;6028152;23;20011;-82
2022/12/27 13:30:41;;;;;;;16.38;4.72;;;7.10;99.90;;;;;;6049500;23;20505;-82
2022/12/27 13:33:34;;;;;;;14.65;4.78;;;7.10;99.90;;;;;;6075130;23;20021;-82
2022/12/27 13:36:33;;;;;;;14.38;4.72;;;6.90;99.90;;;;;;6048366;23;20071;-83
2022/12/27 13:39:20;;;;;;;19.13;5.85;;;6.80;99.90;;;;;;6025084;23;20090;-84
2022/12/27 13:42:16;;;;;;;18.80;5.30;;;6.80;99.90;;;;;;6048206;23;20011;-82
2022/12/27 13:45:00;;;;;;;;;;;6.70;99.90;;;;;;6073522;23;20342;-80
2022/12/27 13:47:29;;;;;;;13.02;4.85;;;6.70;99.90;;;;;;6072777;23;19914;-82
2022/12/27 13:50:11;;;;;;;13.43;5.13;;;6.70;99.90;;;;;;6046378;23;20023;-82
2022/12/27 13:53:16;;;;;;;17.55;5.80;;;6.60;99.90;;;;;;6047077;23;20095;-82
2022/12/27 13:55:51;;;;;;;14.82;4.68;;;6.60;99.90;;;;;;6022938;23;20071;-85
2022/12/27 13:58:36;;;;;;;17.65;7.15;;;6.60;99.90;;;;;;6072383;23;20018;-82
2022/12/27 14:01:04;;;;;;;15.02;5.75;;;6.60;99.90;;;;;;6046769;23;20050;-85
2022/12/27 14:03:39;;;;;;;17.73;7.10;;;6.60;99.90;;;;;;6046954;23;20449;-83
2022/12/27 14:06:25;;;;;;;15.65;6.88;;;6.60;99.90;;;;;;6072206;23;20022;-83
2022/12/27 14:09:12;;;;;;;20.75;7.00;;;6.60;99.90;;;;;;6073000;23;20015;-80
2022/12/27 14:12:03;;;;;;;16.58;7.55;;;6.60;99.90;;;;;;6022824;23;20345;-82
2022/12/27 14:14:30;;;;;;;17.67;7.22;;;6.50;99.90;;;;;;6046960;23;20019;-85
2022/12/27 14:17:11;;;;;;;19.98;6.70;;;6.50;99.90;;;;;;6071949;23;20038;-82
2022/12/27 14:19:46;;;;;;;23.20;8.18;;;6.50;99.90;;;;;;6022557;23;20023;-84
2022/12/27 14:22:28;;;;;;;18.53;7.87;;;6.50;99.90;;;;;;6072222;23;20385;-84
2022/12/27 14:25:14;;;;;;;22.45;8.90;;;6.40;99.90;;;;;;6047246;23;20029;-84
2022/12/27 14:28:17;;;;;;;19.10;8.55;;;6.40;99.90;;;;;;6047136;23;20029;-82
2022/12/27 14:31:02;;;;;;;26.92;8.85;;;6.40;99.90;;;;;;6072447;23;20069;-82
2022/12/27 14:34:05;;;;;;;16.83;7.77;;;6.40;99.90;;;;;;6072466;23;20007;-82
2022/12/27 14:36:53;;;;;;;20.23;7.78;;;6.40;99.90;;;;;;6046967;23;20074;-84
2022/12/27 14:39:37;;;;;;;24.52;9.05;;;6.30;99.90;;;;;;6046545;23;20019;-85
2022/12/27 14:42:31;;;;;;;17.17;8.52;;;6.40;99.90;;;;;;6072090;23;20066;-83
2022/12/27 14:45:12;;;;;;;20.77;7.82;;;6.40;99.90;;;;;;6072161;23;20018;-83
2022/12/27 14:48:11;;;;;;;23.00;9.25;;;6.30;99.90;;;;;;6046056;23;20480;-84
2022/12/27 14:51:11;;;;;;;26.30;9.38;;;6.30;99.90;;;;;;6071967;23;20018;-86
2022/12/27 14:53:52;;;;;;;24.48;10.35;;;6.30;99.90;;;;;;6072368;23;20042;-80
2022/12/27 14:56:37;;;;;;;22.80;9.07;;;6.30;99.90;;;;;;6071985;23;20043;-84
2022/12/27 14:59:16;;;;;;;23.83;11.52;;;6.30;99.90;;;;;;6047362;23;20019;-83
2022/12/27 15:01:55;;;;;;;24.90;11.38;;;6.30;99.90;;;;;;6046481;23;20014;-83
2022/12/27 15:04:33;;;;;;;20.75;11.07;;;6.30;99.90;;;;;;6071784;23;20014;-83
2022/12/27 15:07:17;;;;;;;27.15;13.02;;;6.30;99.90;;;;;;6045928;23;20014;-81
2022/12/27 15:10:01;;;;;;;22.17;9.77;;;6.30;99.90;;;;;;6048002;23;20027;-83
2022/12/27 15:12:49;;;;;;;24.27;10.35;;;6.30;99.90;;;;;;6049007;23;20143;-85
2022/12/27 15:15:39;;;;;;;20.92;9.27;;;6.30;99.90;;;;;;6023030;23;20117;-81
2022/12/27 15:18:24;;;;;;;20.10;10.13;;;6.30;99.90;;;;;;6022877;23;20019;-83
2022/12/27 15:20:57;;;;;;;22.10;9.82;;;6.30;99.90;;;;;;6072181;23;20038;-81
2022/12/27 15:23:32;;;;;;;25.92;10.30;;;6.30;99.90;;;;;;6023699;23;20022;-83
2022/12/27 15:26:01;;;;;;;;;;;6.30;99.90;;;;;;6047480;23;20011;-82
2022/12/27 15:28:53;;;;;;;21.88;10.82;;;6.30;99.90;;;;;;6046887;23;19936;-82
2022/12/27 15:31:40;;;;;;;22.73;10.48;;;6.20;99.90;;;;;;6046861;23;20046;-83
2022/12/27 15:34:27;;;;;;;18.90;10.75;;;6.20;99.90;;;;;;6023927;23;20078;-82
2022/12/27 15:36:53;;;;;;;26.45;10.98;;;6.10;99.90;;;;;;6072853;23;20019;-82
2022/12/27 15:39:34;;;;;;;21.67;10.52;;;6.10;99.90;;;;;;6023361;23;20018;-84
2022/12/27 15:42:18;;;;;;;20.08;9.82;;;6.00;99.90;;;;;;6047068;23;20026;-83
2022/12/27 15:45:05;;;;;;;19.98;10.50;;;6.00;99.90;;;;;;6046524;23;20026;-84
2022/12/27 15:47:54;;;;;;;23.92;10.90;;;6.00;99.90;;;;;;6046937;23;20042;-82
2022/12/27 15:50:39;;;;;;;22.02;11.07;;;6.00;99.90;;;;;;6047103;23;20098;-82
2022/12/27 15:53:28;;;;;;;25.35;10.98;;;6.00;99.90;;;;;;6046495;23;20015;-84
2022/12/27 15:56:21;;;;;;;24.75;11.18;;;5.90;99.90;;;;;;6022515;23;20315;-85
2022/12/27 15:59:25;;;;;;;26.00;11.32;;;5.90;99.90;;;;;;6072675;23;20011;-84
2022/12/27 16:02:20;;;;;;;25.33;11.68;;;5.90;99.90;;;;;;6046906;23;20480;-83
2022/12/27 16:04:52;;;;;;;21.63;11.15;;;5.80;99.90;;;;;;6046958;23;20124;-82
2022/12/27 16:07:40;;;;;;;22.60;12.45;;;5.80;99.90;;;;;;6046706;23;20019;-80
2022/12/27 16:10:30;;;;;;;29.00;13.02;;;5.80;99.90;;;;;;6046522;23;20029;-81
2022/12/27 16:13:08;;;;;;;24.40;11.52;;;5.70;99.90;;;;;;6047999;23;20066;-84
2022/12/27 16:15:43;;;;;;;18.92;11.68;;;5.70;99.90;;;;;;6047261;23;20018;-85
2022/12/27 16:18:18;;;;;;;27.35;12.45;;;5.70;99.90;;;;;;6023383;23;20025;-83
2022/12/27 16:21:00;;;;;;;26.87;12.67;;;5.70;99.90;;;;;;6072243;23;20019;-82
2022/12/27 16:23:31;;;;;;;27.38;11.75;;;5.70;99.90;;;;;;6047017;23;20258;-83
2022/12/27 16:26:31;;;;;;;21.02;10.98;;;5.70;99.90;;;;;;6047819;23;20070;-80
2022/12/27 16:29:08;;;;;;;22.70;11.73;;;5.60;99.90;;;;;;5987101;23;20454;-83
2022/12/27 16:31:36;;;;;;;28.73;12.38;;;5.60;99.90;;;;;;6072234;23;20412;-83
2022/12/27 16:34:27;;;;;;;24.35;11.35;;;5.60;99.90;;;;;;6072800;23;20018;-83
2022/12/27 16:36:55;;;;;;;19.85;11.10;;;5.60;99.90;;;;;;6071964;23;20465;-81
2022/12/27 16:39:30;;;;;;;22.75;11.75;;;5.60;99.90;;;;;;6046999;23;20038;-83
2022/12/27 16:42:00;;;;;;;24.13;11.83;;;5.60;99.90;;;;;;6045728;23;20022;-83
2022/12/27 16:44:28;;;;;;;23.90;11.98;;;5.60;99.90;;;;;;6071416;23;20056;-83
2022/12/27 16:47:25;;;;;;;26.23;12.43;;;5.60;99.90;;;;;;6072117;23;20030;-83
2022/12/27 16:50:15;;;;;;;27.42;12.48;;;5.60;99.90;;;;;;6032292;23;20074;-83
2022/12/27 16:53:02;;;;;;;25.38;12.20;;;5.60;99.90;;;;;;6045450;23;20450;-84
2022/12/27 16:55:47;;;;;;;21.48;12.05;;;5.60;99.90;;;;;;6045717;23;20015;-83
2022/12/27 16:58:27;;;;;;;18.55;11.05;;;5.60;99.90;;;;;;6045260;23;20089;-82
2022/12/27 17:00:55;;;;;;;22.38;10.35;;;5.60;99.90;;;;;;6044878;23;20086;-82
2022/12/27 17:03:40;;;;;;;24.65;12.77;;;5.60;99.90;;;;;;6047731;23;20026;-84
2022/12/27 17:06:17;;;;;;;19.75;11.13;;;5.50;99.90;;;;;;6047684;23;20019;-82
2022/12/27 17:08:44;;;;;;;23.13;11.85;;;5.50;99.90;;;;;;6047262;23;20033;-83
2022/12/27 17:11:24;;;;;;;22.25;11.13;;;5.50;99.90;;;;;;6073428;23;20011;-85
2022/12/27 17:14:07;;;;;;;27.50;12.18;;;5.60;99.90;;;;;;6048689;23;20010;-83
2022/12/27 17:16:46;;;;;;;27.13;13.63;;;5.60;99.90;;;;;;6047573;23;20015;-83
2022/12/27 17:19:35;;;;;;;28.48;12.32;;;5.60;99.90;;;;;;6074453;23;20417;-81
2022/12/27 17:22:04;;;;;;;25.02;13.40;;;5.70;99.90;;;;;;6047691;23;20089;-81
2022/12/27 17:24:29;;;;;;;23.85;13.27;;;5.70;99.90;;;;;;6025471;23;20436;-82
2022/12/27 17:27:16;;;;;;;30.00;14.32;;;5.70;99.90;;;;;;6047459;23;20070;-82
2022/12/27 17:30:01;;;;;;;24.15;13.20;;;5.70;99.90;;;;;;6073810;23;20063;-82
2022/12/27 17:32:41;;;;;;;26.30;15.25;;;5.70;99.90;;;;;;6074423;23;20015;-80
2022/12/27 17:35:26;;;;;;;21.92;12.27;;;5.70;99.90;;;;;;6024089;23;20019;-82
2022/12/27 17:38:10;;;;;;;28.07;14.40;;;5.80;99.90;;;;;;6048432;23;20059;-83
2022/12/27 17:40:42;;;;;;;35.33;18.42;;;5.80;99.90;;;;;;6047674;23;20330;-83
2022/12/27 17:46:30;;;;;;;35.13;17.20;;;5.80;99.90;;;;;;6048108;23;20023;-83
2022/12/27 17:48:57;;;;;;;26.17;12.38;;;5.90;99.90;;;;;;6073292;23;20018;-81
2022/12/27 17:51:28;;;;;;;27.15;13.88;;;5.80;99.90;;;;;;6071417;23;20094;-82
2022/12/27 17:59:44;;;;;;;26.77;14.45;;;5.90;99.90;;;;;;6047123;23;20079;-83
2022/12/27 18:02:10;;;;;;;23.23;13.32;;;5.90;99.90;;;;;;6071989;23;20019;-82
2022/12/27 18:04:40;;;;;;;23.30;13.82;;;5.90;99.90;;;;;;6022985;23;20047;-83
2022/12/27 18:07:09;;;;;;;27.48;13.38;;;6.00;99.90;;;;;;6073506;23;20015;-81
2022/12/27 18:09:53;;;;;;;25.65;14.30;;;6.00;99.90;;;;;;6048778;23;20042;-82
2022/12/27 18:12:33;;;;;;;20.58;11.13;;;6.10;99.90;;;;;;6048678;23;20007;-82
2022/12/27 18:15:18;;;;;;;24.90;13.07;;;6.10;99.90;;;;;;6048549;23;20019;-82
2022/12/27 18:17:47;;;;;;;27.15;11.95;;;6.10;99.90;;;;;;6049781;23;20015;-80
2022/12/27 18:20:28;;;;;;;33.38;13.88;;;6.20;99.90;;;;;;6074557;23;20018;-84
2022/12/27 18:23:00;;;;;;;25.55;12.52;;;6.20;99.90;;;;;;6075360;23;20382;-83
2022/12/27 18:25:29;;;;;;;15.70;7.55;;;6.20;99.90;;;;;;6025697;23;20448;-84
2022/12/27 18:28:11;;;;;;;22.75;10.75;;;6.30;99.90;;;;;;6076094;23;20027;-80
2022/12/27 18:30:44;;;;;;;27.08;10.40;;;6.30;99.90;;;;;;6050592;23;20023;-83
2022/12/27 18:33:15;;;;;;;20.88;10.27;;;6.30;99.90;;;;;;6026697;23;20026;-82
2022/12/27 18:35:49;;;;;;;20.75;10.23;;;6.30;99.90;;;;;;6026127;23;20014;-84